< Typhoon 199605 1996 Season Typhoon 199607 >
Typhoon 199606 (EVE)
General InformationTrack Information on Google MapsDetailed Wind InformationList of All Images || Disaster Info.ResourceGoogle EarthGE AnimationAtom FeedGeoJSON
Detalied Best Track (Time Zone = UTC)
Year Month Day Hour Lat. Long. Pressure (hPa) Wind (kt) Class Image Chart
1996 7 13 06 18.5 144.5 1008 0 2 Image Chart
1996 7 13 12 18.9 143.9 1008 0 2 Image Chart
1996 7 13 18 19.8 143.0 1008 0 2 Image Chart
1996 7 14 00 20.2 142.3 1004 0 2 Image Chart
1996 7 14 06 20.5 141.5 1000 35 3 Image Chart
1996 7 14 12 20.8 140.8 998 35 3 Image Chart
1996 7 14 18 21.4 139.9 994 40 3 Image Chart
1996 7 15 00 22.0 139.1 985 50 4 Image Chart
1996 7 15 06 22.6 138.0 975 60 4 Image Chart
1996 7 15 12 23.0 137.0 970 65 5 Image Chart
1996 7 15 18 23.5 136.0 960 70 5 Image Chart
1996 7 16 00 24.1 135.3 945 85 5 Image Chart
1996 7 16 03 24.4 134.9 940 85 5 Image Chart
1996 7 16 06 24.8 134.5 940 85 5 Image Chart
1996 7 16 09 25.1 134.2 940 85 5 Image Chart
1996 7 16 12 25.6 133.7 940 85 5 Image Chart
1996 7 16 15 25.9 133.2 940 85 5 Image Chart
1996 7 16 18 26.3 132.8 940 85 5 Image Chart
1996 7 16 21 26.6 132.5 940 85 5 Image Chart
1996 7 17 00 27.0 132.2 945 80 5 Image Chart
1996 7 17 03 27.4 131.9 945 80 5 Image Chart
1996 7 17 06 27.9 131.5 945 80 5 Image Chart
1996 7 17 09 28.3 131.3 945 80 5 Image Chart
1996 7 17 12 28.6 131.0 950 75 5 Image Chart
1996 7 17 15 29.1 130.7 950 75 5 Image Chart
1996 7 17 18 29.6 130.6 950 75 5 Image Chart
1996 7 17 21 30.1 130.5 950 75 5 Image Chart
1996 7 17 23 30.4 130.5 950 75 5 Image Chart
1996 7 18 00 30.5 130.4 955 75 5 Image Chart
1996 7 18 03 31.0 130.5 960 75 5 Image Chart
1996 7 18 04 31.1 130.5 960 75 5 Image Chart
1996 7 18 06 31.5 130.6 970 65 5 Image Chart
1996 7 18 09 32.1 130.9 980 60 4 Image Chart
1996 7 18 12 32.7 130.9 990 50 4 Image Chart
1996 7 18 15 33.2 131.0 996 40 3 Image Chart
1996 7 18 18 33.5 131.2 996 40 3 Image Chart
1996 7 18 21 33.6 131.6 998 35 3 Image Chart
1996 7 19 00 33.7 132.3 998 35 3 Image Chart
1996 7 19 06 34.2 133.4 1000 0 2 Image Chart
1996 7 19 12 34.6 134.4 1002 0 2 Image Chart
1996 7 19 18 34.9 135.2 1002 0 2 Image Chart
1996 7 20 00 35.0 135.9 1004 0 2 Image Chart
1996 7 20 06 34.7 136.8 1004 0 2 Image Chart
1996 7 20 12 34.2 137.9 1004 0 2 Image Chart
1996 7 20 18 34.2 139.1 1004 0 2 Image Chart
1996 7 21 00 34.1 140.0 1004 0 2 Image Chart
1996 7 21 06 34.0 141.1 1004 0 2 Image Chart
1996 7 21 12 33.9 142.3 1006 0 2 Image Chart
1996 7 21 18 33.4 143.4 1006 0 2 Image Chart
1996 7 22 00 32.7 144.3 1006 0 2 Image Chart
1996 7 22 06 32.0 145.4 1004 0 2 Image Chart
1996 7 22 12 31.8 146.5 1004 0 2 Image Chart
1996 7 22 18 31.6 147.4 1004 0 2 Image Chart
1996 7 23 00 31.2 148.3 1004 0 2 Image Chart
1996 7 23 06 31.2 149.2 1006 0 2 Image Chart
1996 7 23 12 31.3 150.0 1006 0 2 Image Chart
1996 7 23 18 32.5 151.0 1006 0 2 Image Chart
1996 7 24 00 34.3 152.0 1006 0 2 Image Chart
1996 7 24 06 36.3 153.1 1006 0 2 Image Chart
1996 7 24 12 38.8 154.8 1004 0 6 Image Chart
1996 7 24 18 40.0 156.8 1000 0 6 Image Chart
1996 7 25 00 41.4 158.9 1000 0 6 Image Chart
1996 7 25 06 42.8 160.7 1004 0 6 Image Chart
1996 7 25 12 44.2 162.7 1004 0 6 Image Chart
1996 7 25 18 45.7 164.8 1004 0 6 Image Chart
1996 7 26 00 46.6 167.0 1004 0 6 Image Chart
1996 7 26 06 48.5 169.3 1006 0 6 Image Chart
1996 7 26 12 50.0 171.7 1006 0 6 Image Chart
1996 7 26 18 50.5 174.4 1006 0 6 Image Chart
1996 7 27 00 51.6 177.6 1004 0 6 Image Chart
1996 7 27 06 52.8 180.4 1002 0 6 Image Chart
Japan Meteorological Agency Best Track Data | Correction Date : 1997-01-07
< Typhoon 199605 1996 Season Typhoon 199607 >

Help